Time;durP1;ratioP1;P1;durP2;ratioP2;P2;SDS_P1;SDS_P2;PMS_P1;PMS_P2;Temp;Humidity;BMP_temperature;BMP_pressure;BME280_temperature;BME280_humidity;BME280_pressure;Samples;Min_cycle;Max_cycle;Signal;HPM_P1;HPM_P2
2021/12/04 00:00:22;;;;;;;9.00;3.60;;;;;;;-3.91;100.00;94591.03;5008657;28;20502;-77
2021/12/04 00:03:02;;;;;;;9.32;3.38;;;;;;;-3.98;100.00;94594.63;5002439;28;20120;-77
2021/12/04 00:05:28;;;;;;;6.60;2.78;;;;;;;-3.71;99.30;94590.22;5008948;28;20041;-77
2021/12/04 00:07:53;;;;;;;5.63;2.75;;;;;;;-3.42;97.63;94573.50;5004311;28;20041;-77
2021/12/04 00:10:21;;;;;;;8.48;3.53;;;;;;;-3.35;96.54;94569.13;5009417;28;20050;-76
2021/12/04 00:12:48;;;;;;;5.57;2.72;;;;;;;-3.48;95.80;94564.00;5008065;28;20049;-77
2021/12/04 00:15:13;;;;;;;4.72;2.35;;;;;;;-3.43;95.71;94546.19;5004625;28;20427;-77
2021/12/04 00:17:39;;;;;;;7.85;2.97;;;;;;;-3.28;95.81;94542.56;5000719;28;20053;-77
2021/12/04 00:20:07;;;;;;;5.65;2.38;;;;;;;-3.27;94.19;94539.00;5009166;28;20057;-77
2021/12/04 00:22:33;;;;;;;5.40;2.35;;;;;;;-3.24;94.62;94520.56;5002780;28;20212;-77
2021/12/04 00:24:58;;;;;;;7.35;2.70;;;;;;;-3.38;96.32;94538.63;4999785;28;20555;-77
2021/12/04 00:27:24;;;;;;;5.32;2.78;;;;;;;-3.58;95.45;94532.78;5006153;28;20469;-77
2021/12/04 00:29:49;;;;;;;5.65;2.25;;;;;;;-3.44;95.45;94524.03;5008036;28;20046;-77
2021/12/04 00:32:25;;;;;;;4.70;2.30;;;;;;;-3.25;95.33;94511.25;4997965;28;20424;-77
2021/12/04 00:34:56;;;;;;;6.78;2.28;;;;;;;-3.31;95.96;94503.34;5006633;28;20416;-77
2021/12/04 00:51:02;;;;;;;4.87;2.03;;;;;;;-2.99;93.47;94476.81;4993671;28;20482;-77
2021/12/04 00:53:27;;;;;;;3.75;1.70;;;;;;;-2.88;93.02;94475.38;4997220;28;20046;-76
2021/12/04 00:55:53;;;;;;;3.47;1.88;;;;;;;-3.00;94.01;94473.47;4999811;28;20100;-77
2021/12/04 00:58:18;;;;;;;4.35;2.00;;;;;;;-3.14;96.02;94469.41;4998750;28;20046;-77
2021/12/04 01:00:44;;;;;;;4.97;1.90;;;;;;;-3.08;95.60;94460.84;4990425;28;20495;-78
2021/12/04 01:03:09;;;;;;;3.65;1.90;;;;;;;-3.04;95.13;94462.00;5006225;28;20056;-77
2021/12/04 01:05:35;;;;;;;3.50;1.75;;;;;;;-2.93;91.71;94467.47;5007600;28;20050;-77
2021/12/04 01:08:00;;;;;;;4.35;1.83;;;;;;;-2.79;92.57;94474.91;4985146;28;20039;-77
2021/12/04 01:10:26;;;;;;;3.63;1.85;;;;;;;-2.79;92.16;94469.75;4981303;28;20138;-77
2021/12/04 01:12:52;;;;;;;4.32;1.90;;;;;;;-2.71;91.24;94476.41;4990319;28;20042;-77
2021/12/04 01:15:18;;;;;;;2.95;1.45;;;;;;;-2.81;91.97;94486.41;5006891;28;20034;-77
2021/12/04 01:17:44;;;;;;;2.80;1.60;;;;;;;-2.67;91.39;94477.56;5006343;28;20061;-77
2021/12/04 01:20:10;;;;;;;4.90;2.05;;;;;;;-2.59;92.72;94478.28;4988872;28;20046;-77
2021/12/04 01:22:36;;;;;;;3.50;1.70;;;;;;;-2.65;91.36;94485.84;4971420;28;20101;-77
2021/12/04 01:25:03;;;;;;;3.00;1.60;;;;;;;-2.81;93.07;94497.47;4980281;28;20053;-77
2021/12/04 01:27:28;;;;;;;2.97;1.50;;;;;;;-2.67;91.28;94487.88;5003350;28;20132;-77
2021/12/04 01:29:54;;;;;;;4.32;1.50;;;;;;;-2.53;91.67;94498.84;5005614;28;20057;-77
2021/12/04 01:32:19;;;;;;;3.63;1.80;;;;;;;-2.47;90.89;94486.88;5004941;28;20045;-77
2021/12/04 01:34:45;;;;;;;4.13;1.60;;;;;;;-2.48;91.12;94475.03;4989434;28;20073;-77
2021/12/04 01:37:10;;;;;;;5.80;1.70;;;;;;;-2.34;89.60;94479.03;4984713;28;20043;-77
2021/12/04 01:39:36;;;;;;;2.05;1.38;;;;;;;-2.24;87.97;94464.84;4988811;28;20042;-77
2021/12/04 01:42:02;;;;;;;2.92;1.35;;;;;;;-2.22;87.52;94462.88;4990396;28;20489;-79
2021/12/04 01:44:27;;;;;;;4.03;1.70;;;;;;;-2.35;89.18;94467.16;5006439;28;20042;-78
2021/12/04 01:46:56;;;;;;;3.92;1.60;;;;;;;-2.46;87.70;94466.09;4980814;28;20066;-78
2021/12/04 01:49:23;;;;;;;2.83;1.30;;;;;;;-2.47;89.61;94461.91;5006705;28;20042;-78
2021/12/04 01:51:49;;;;;;;3.42;1.55;;;;;;;-2.47;86.92;94455.97;4996566;28;20045;-77
2021/12/04 01:54:14;;;;;;;3.13;1.35;;;;;;;-2.22;89.70;94452.56;5000097;28;20041;-77
2021/12/04 01:56:40;;;;;;;2.42;1.33;;;;;;;-2.18;91.71;94435.66;5007254;28;20404;-77
2021/12/04 01:59:06;;;;;;;2.67;1.50;;;;;;;-2.06;94.31;94425.41;5001374;28;20042;-76
2021/12/04 02:01:33;;;;;;;3.90;1.73;;;;;;;-2.30;95.34;94410.63;5005874;28;20050;-78
2021/12/04 02:03:58;;;;;;;2.92;1.50;;;;;;;-2.53;98.51;94395.00;4988623;28;20039;-77
2021/12/04 02:06:24;;;;;;;3.03;1.63;;;;;;;-2.57;99.31;94389.50;5003122;28;20423;-77
2021/12/04 02:08:49;;;;;;;5.05;1.90;;;;;;;-2.36;98.63;94384.91;4996590;28;20459;-77
2021/12/04 02:11:15;;;;;;;2.55;1.50;;;;;;;-2.20;96.76;94393.84;5006284;28;20046;-77
2021/12/04 02:13:40;;;;;;;3.85;1.80;;;;;;;-2.13;94.79;94389.38;5002878;28;20092;-77
2021/12/04 02:16:18;;;;;;;6.05;1.65;;;;;;;-1.98;94.64;94370.97;5003005;28;20073;-78
2021/12/04 02:18:44;;;;;;;8.90;2.25;;;;;;;-2.16;96.90;94358.91;5006505;28;20064;-77
2021/12/04 02:21:10;;;;;;;6.43;2.05;;;;;;;-2.15;94.98;94356.09;5007138;28;20057;-77
2021/12/04 02:23:36;;;;;;;2.90;1.70;;;;;;;-2.06;94.29;94369.47;5003215;28;20046;-77
2021/12/04 02:26:02;;;;;;;4.43;1.77;;;;;;;-1.99;93.82;94362.44;4994068;28;20460;-77
2021/12/04 02:28:28;;;;;;;4.10;1.50;;;;;;;-2.01;93.84;94372.19;4998369;28;20053;-77
2021/12/04 02:30:53;;;;;;;3.13;1.65;;;;;;;-1.98;93.76;94371.75;5006867;28;20095;-77
2021/12/04 02:33:21;;;;;;;3.28;1.70;;;;;;;-1.93;94.29;94378.81;5005889;28;20068;-77
2021/12/04 02:35:50;;;;;;;2.72;1.48;;;;;;;-1.93;94.16;94383.97;4975329;28;20046;-77
2021/12/04 02:38:17;;;;;;;2.50;1.63;;;;;;;-1.95;93.91;94375.69;4985216;28;20418;-77
2021/12/04 02:40:45;;;;;;;3.67;1.40;;;;;;;-1.94;94.10;94374.66;5010496;28;20053;-77
2021/12/04 02:43:11;;;;;;;3.55;1.50;;;;;;;-1.95;93.80;94365.38;5004767;28;20038;-77
2021/12/04 02:45:37;;;;;;;3.63;1.60;;;;;;;-1.93;94.05;94363.34;5003183;28;20038;-77
2021/12/04 02:48:03;;;;;;;3.05;1.38;;;;;;;-1.89;93.83;94366.28;4991620;28;20042;-77
2021/12/04 02:50:29;;;;;;;3.45;1.55;;;;;;;-1.86;93.87;94358.13;4996336;28;20636;-77
2021/12/04 02:52:54;;;;;;;3.22;1.40;;;;;;;-1.83;94.04;94352.53;5009869;28;20084;-77
2021/12/04 02:55:20;;;;;;;2.40;1.40;;;;;;;-1.84;93.99;94345.78;4989472;28;20187;-77
2021/12/04 02:57:46;;;;;;;2.58;1.33;;;;;;;-1.88;94.26;94354.97;5009434;28;20045;-77
2021/12/04 03:00:18;;;;;;;2.22;1.38;;;;;;;-1.73;92.73;94355.34;4989964;28;20467;-78
2021/12/04 03:02:45;;;;;;;2.03;1.45;;;;;;;-1.76;93.23;94342.91;5008548;28;20558;-77
2021/12/04 03:05:11;;;;;;;2.33;1.30;;;;;;;-1.74;94.11;94335.72;5000647;28;20108;-77
2021/12/04 03:07:38;;;;;;;3.00;1.63;;;;;;;-1.88;94.46;94335.13;5000574;28;20126;-78
2021/12/04 03:10:07;;;;;;;2.92;1.40;;;;;;;-2.02;95.63;94339.69;5004327;28;20115;-77
2021/12/04 03:12:33;;;;;;;2.20;1.42;;;;;;;-1.84;95.97;94340.63;4989725;28;20042;-79
2021/12/04 03:14:59;;;;;;;2.08;1.20;;;;;;;-1.65;94.23;94333.59;4997237;28;20065;-77
2021/12/04 03:17:26;;;;;;;2.28;1.13;;;;;;;-1.67;93.60;94336.41;4998898;28;20042;-75
2021/12/04 03:19:53;;;;;;;4.13;1.73;;;;;;;-1.66;93.74;94337.19;5007606;28;20111;-76
2021/12/04 03:22:21;;;;;;;2.38;1.20;;;;;;;-1.62;93.76;94335.75;5009555;28;20672;-75
2021/12/04 03:24:47;;;;;;;3.42;1.27;;;;;;;-1.73;93.47;94336.50;4990771;28;20041;-76
2021/12/04 03:27:14;;;;;;;2.53;1.40;;;;;;;-1.83;95.21;94331.88;5005728;28;20046;-76
2021/12/04 03:29:48;;;;;;;3.05;1.50;;;;;;;-1.95;98.35;94327.47;5009109;28;20117;-77
2021/12/04 03:42:53;;;;;;;2.03;1.20;;;;;;;-1.54;92.47;94319.16;5008075;28;20061;-75
2021/12/04 03:45:19;;;;;;;2.22;1.20;;;;;;;-1.57;92.94;94300.53;4982775;28;20046;-75
2021/12/04 03:47:48;;;;;;;2.65;1.05;;;;;;;-1.55;92.88;94297.75;5008764;28;20066;-76
2021/12/04 03:50:14;;;;;;;1.90;0.93;;;;;;;-1.62;94.04;94282.34;4994277;28;20165;-76
2021/12/04 03:52:40;;;;;;;2.03;1.35;;;;;;;-1.72;94.76;94281.31;4989000;28;20046;-76
2021/12/04 03:55:07;;;;;;;2.45;1.45;;;;;;;-1.62;94.69;94269.47;5004107;28;20038;-75
2021/12/04 03:57:33;;;;;;;1.75;1.27;;;;;;;-1.67;96.03;94259.00;5009582;28;20046;-76
2021/12/04 04:00:02;;;;;;;2.33;1.40;;;;;;;-1.69;96.82;94245.56;4999084;28;20042;-77
2021/12/04 04:02:28;;;;;;;2.65;1.20;;;;;;;-1.82;98.48;94240.63;4998839;28;20319;-76
2021/12/04 04:04:55;;;;;;;5.32;1.45;;;;;;;-1.82;98.83;94245.78;4990373;28;20042;-76
2021/12/04 04:07:21;;;;;;;2.20;1.35;;;;;;;-1.77;99.36;94232.97;5001332;28;20049;-76
2021/12/04 04:09:46;;;;;;;2.42;1.45;;;;;;;-1.65;99.50;94233.78;4996829;28;20064;-76
2021/12/04 04:12:12;;;;;;;2.00;1.20;;;;;;;-1.71;99.65;94231.31;5007611;28;20484;-76
2021/12/04 04:14:37;;;;;;;3.50;1.42;;;;;;;-1.63;99.64;94236.13;5009425;28;20049;-75
2021/12/04 04:17:04;;;;;;;1.52;1.23;;;;;;;-1.59;99.84;94226.94;5004353;28;20456;-76
2021/12/04 04:19:29;;;;;;;2.13;1.35;;;;;;;-1.57;99.40;94217.97;5003158;28;20504;-75
2021/12/04 04:21:56;;;;;;;2.13;1.35;;;;;;;-1.58;100.00;94215.59;5008195;28;20096;-76
2021/12/04 04:24:24;;;;;;;1.83;1.15;;;;;;;-1.61;100.00;94222.03;5008313;28;20116;-76
2021/12/04 04:26:50;;;;;;;3.20;1.50;;;;;;;-1.63;100.00;94213.69;4987316;28;20060;-75
2021/12/04 04:29:16;;;;;;;2.60;1.15;;;;;;;-1.64;100.00;94222.47;5009393;28;20046;-74
2021/12/04 04:31:49;;;;;;;1.83;1.30;;;;;;;-1.63;100.00;94224.03;5007203;28;20038;-76
2021/12/04 04:34:24;;;;;;;2.17;1.50;;;;;;;-1.63;100.00;94218.84;5008759;28;20065;-75
2021/12/04 05:14:35;;;;;;;2.80;1.42;;;;;;;-1.08;100.00;94167.84;5000175;28;20038;-77
2021/12/04 05:18:08;;;;;;;2.35;1.27;;;;;;;-1.05;100.00;94154.47;4999555;28;20673;-78
2021/12/04 05:19:55;;;;;;;5.03;1.73;;;;;;;-0.99;100.00;94166.47;4986219;28;20057;-78
2021/12/04 05:22:22;;;;;;;5.63;1.83;;;;;;;-1.05;100.00;94162.22;4990423;28;20518;-78
2021/12/04 05:24:49;;;;;;;6.53;1.80;;;;;;;-0.95;100.00;94157.25;5006823;28;20069;-78
2021/12/04 05:27:15;;;;;;;3.85;1.63;;;;;;;-0.90;100.00;94154.75;5006760;28;20641;-76
2021/12/04 05:29:41;;;;;;;9.02;1.38;;;;;;;-0.91;100.00;94153.19;5007776;28;20081;-76
2021/12/04 05:32:08;;;;;;;3.65;1.60;;;;;;;-0.87;100.00;94141.38;4988713;28;20034;-75
2021/12/04 05:34:34;;;;;;;2.22;1.40;;;;;;;-0.83;100.00;94135.75;5007665;28;20080;-76
2021/12/04 05:37:01;;;;;;;2.95;1.60;;;;;;;-0.79;100.00;94134.28;5002461;28;20046;-77
2021/12/04 05:39:27;;;;;;;3.38;1.20;;;;;;;-0.77;100.00;94132.25;4990517;28;20046;-77
2021/12/04 05:41:53;;;;;;;5.63;1.27;;;;;;;-0.75;100.00;94130.22;5006946;28;20042;-77
2021/12/04 05:44:22;;;;;;;3.60;1.50;;;;;;;-0.74;100.00;94126.63;5004428;28;20050;-77
2021/12/04 05:46:59;;;;;;;2.45;1.42;;;;;;;-0.76;100.00;94128.63;5005419;28;20384;-77
2021/12/04 05:57:03;;;;;;;2.90;1.50;;;;;;;-0.67;100.00;94116.94;5004449;28;20057;-76
2021/12/04 05:59:29;;;;;;;3.17;1.60;;;;;;;-0.64;100.00;94110.50;5002475;28;20492;-77
2021/12/04 06:01:55;;;;;;;3.45;1.67;;;;;;;-0.64;100.00;94106.13;4996822;28;20476;-77
2021/12/04 06:04:21;;;;;;;3.33;1.90;;;;;;;-0.66;100.00;94097.84;4987207;28;20045;-77
2021/12/04 06:06:46;;;;;;;2.83;1.63;;;;;;;-0.61;100.00;94095.31;5003772;28;20038;-76
2021/12/04 06:09:12;;;;;;;3.13;1.70;;;;;;;-0.63;100.00;94092.19;4989420;28;20069;-77
2021/12/04 06:11:38;;;;;;;4.32;2.03;;;;;;;-0.60;100.00;94091.72;5011394;28;20041;-76
2021/12/04 06:14:04;;;;;;;4.28;2.03;;;;;;;-0.58;100.00;94089.69;5009722;28;20496;-76
2021/12/04 06:16:31;;;;;;;2.97;1.80;;;;;;;-0.57;100.00;94087.91;5002660;28;20558;-76
2021/12/04 06:18:58;;;;;;;3.95;1.85;;;;;;;-0.55;100.00;94078.91;4979879;28;20041;-76
2021/12/04 06:24:09;;;;;;;2.70;1.63;;;;;;;-0.48;100.00;94070.19;5000641;28;20463;-76
2021/12/04 06:26:36;;;;;;;2.78;1.65;;;;;;;-0.47;100.00;94074.34;4991947;28;20046;-76
2021/12/04 06:29:03;;;;;;;3.45;1.70;;;;;;;-0.52;100.00;94067.28;5008928;28;20033;-77
2021/12/04 06:31:31;;;;;;;2.63;1.73;;;;;;;-0.48;100.00;94073.56;5004590;28;20046;-76
2021/12/04 06:33:56;;;;;;;3.13;1.77;;;;;;;-0.46;100.00;94065.56;4997689;28;20048;-76
2021/12/04 06:36:22;;;;;;;3.92;2.13;;;;;;;-0.44;100.00;94060.97;5007177;28;20049;-76
2021/12/04 06:38:48;;;;;;;2.97;1.80;;;;;;;-0.45;100.00;94073.06;4991113;28;20034;-76
2021/12/04 06:41:14;;;;;;;3.25;1.92;;;;;;;-0.47;100.00;94069.19;4998286;28;20077;-76
2021/12/04 06:43:45;;;;;;;4.20;2.00;;;;;;;-0.41;100.00;94065.66;4991681;28;20077;-76
2021/12/04 06:46:11;;;;;;;3.17;1.80;;;;;;;-0.35;100.00;94064.69;5005240;28;20042;-76
2021/12/04 06:49:41;;;;;;;5.28;2.30;;;;;;;-0.33;100.00;94075.59;4994401;28;20045;-76
2021/12/04 06:51:35;;;;;;;3.65;1.92;;;;;;;-0.34;100.00;94068.84;4987957;28;20061;-75
2021/12/04 06:54:06;;;;;;;3.42;1.95;;;;;;;-0.33;100.00;94072.22;4982122;28;20066;-75
2021/12/04 06:56:36;;;;;;;3.35;1.83;;;;;;;-0.31;100.00;94068.38;5002499;28;20041;-75
2021/12/04 06:59:07;;;;;;;6.30;2.15;;;;;;;-0.33;100.00;94065.25;5003773;28;20038;-75
2021/12/04 07:01:34;;;;;;;3.17;1.80;;;;;;;-0.37;100.00;94064.16;4984172;28;20414;-75
2021/12/04 07:04:00;;;;;;;3.95;1.95;;;;;;;-0.57;100.00;94060.25;5006064;28;20066;-76
2021/12/04 07:06:26;;;;;;;3.50;1.65;;;;;;;-0.62;100.00;94062.72;5000537;28;20042;-76
2021/12/04 07:08:52;;;;;;;3.65;1.90;;;;;;;-0.72;100.00;94063.38;5000816;28;20038;-77
2021/12/04 07:11:17;;;;;;;3.70;2.00;;;;;;;-0.75;100.00;94063.03;5009367;28;20034;-76
2021/12/04 07:13:43;;;;;;;3.53;2.05;;;;;;;-0.80;100.00;94065.56;4990310;28;20584;-76
2021/12/04 07:16:11;;;;;;;3.70;1.80;;;;;;;-0.62;100.00;94057.56;4990927;28;20037;-76
2021/12/04 07:18:38;;;;;;;3.88;2.10;;;;;;;-0.66;100.00;94061.66;5008879;28;20050;-76
2021/12/04 07:21:05;;;;;;;5.80;2.33;;;;;;;-0.73;100.00;94066.19;5005298;28;20049;-75
2021/12/04 07:23:31;;;;;;;4.38;2.20;;;;;;;-0.49;100.00;94055.69;4989953;28;20125;-75
2021/12/04 07:25:57;;;;;;;3.72;2.05;;;;;;;-0.40;100.00;94060.25;4998501;28;20033;-74
2021/12/04 07:28:23;;;;;;;3.92;1.85;;;;;;;-0.39;100.00;94055.84;4986938;28;20045;-74
2021/12/04 07:30:48;;;;;;;4.18;2.00;;;;;;;-0.57;100.00;94044.75;4986975;28;20035;-74
2021/12/04 07:33:15;;;;;;;3.38;1.90;;;;;;;-0.44;100.00;94032.53;4999425;28;20500;-74
2021/12/04 07:35:41;;;;;;;4.07;2.10;;;;;;;-0.36;100.00;94032.09;4991533;28;20046;-74
2021/12/04 07:38:06;;;;;;;3.97;1.92;;;;;;;-0.31;100.00;94021.84;4995784;28;20043;-74
2021/12/04 07:40:32;;;;;;;4.35;2.15;;;;;;;-0.27;100.00;94022.16;4992657;28;20039;-74
2021/12/04 07:42:58;;;;;;;4.15;2.22;;;;;;;-0.32;100.00;94015.09;5010338;28;20042;-74
2021/12/04 07:45:23;;;;;;;3.15;1.75;;;;;;;-0.23;100.00;94007.72;5003145;28;20696;-71
2021/12/04 07:47:49;;;;;;;5.97;2.00;;;;;;;-0.19;100.00;94012.19;5002879;28;20431;-74
2021/12/04 07:50:15;;;;;;;5.22;2.25;;;;;;;-0.19;100.00;94012.19;5001685;28;20039;-74
2021/12/04 07:52:41;;;;;;;5.40;2.00;;;;;;;-0.37;100.00;94013.25;4982175;28;20045;-74
2021/12/04 07:55:08;;;;;;;5.57;2.30;;;;;;;-0.41;100.00;94021.72;4991228;28;20042;-76
2021/12/04 07:57:35;;;;;;;4.88;1.92;;;;;;;-0.27;100.00;94017.78;5007704;28;20042;-76
2021/12/04 08:00:03;;;;;;;4.70;2.00;;;;;;;-0.29;100.00;94022.38;4998033;28;20048;-76
2021/12/04 08:02:28;;;;;;;4.40;2.13;;;;;;;-0.22;100.00;94020.41;5004541;28;20125;-76
2021/12/04 08:04:54;;;;;;;4.65;2.42;;;;;;;-0.19;100.00;94025.13;5003496;28;20042;-76
2021/12/04 08:07:19;;;;;;;5.72;2.13;;;;;;;-0.24;100.00;94017.28;4979163;28;20039;-78
2021/12/04 08:09:45;;;;;;;4.85;2.00;;;;;;;-0.18;100.00;94025.91;4985636;28;20045;-77
2021/12/04 08:12:11;;;;;;;7.35;2.60;;;;;;;-0.05;100.00;94014.44;5006856;28;20073;-77
2021/12/04 08:14:38;;;;;;;7.75;2.75;;;;;;;0.02;100.00;94025.38;5001472;28;20050;-76
2021/12/04 08:17:03;;;;;;;10.40;3.13;;;;;;;0.10;100.00;94017.22;4986022;28;20046;-77
2021/12/04 08:19:29;;;;;;;10.77;3.17;;;;;;;0.14;100.00;94023.47;4990383;28;20149;-76
2021/12/04 08:21:55;;;;;;;8.73;2.90;;;;;;;0.15;100.00;94025.03;5008867;28;20046;-76
2021/12/04 08:24:20;;;;;;;9.65;3.47;;;;;;;0.15;100.00;94019.84;5009395;28;20042;-77
2021/12/04 08:26:47;;;;;;;12.48;3.00;;;;;;;0.21;100.00;94014.75;4988548;28;20588;-77
2021/12/04 08:29:13;;;;;;;11.73;3.45;;;;;;;0.20;100.00;94026.13;5008922;28;20699;-77
2021/12/04 08:31:39;;;;;;;10.57;3.33;;;;;;;0.27;100.00;94022.31;5007255;28;20042;-77
2021/12/04 08:34:04;;;;;;;11.30;3.13;;;;;;;0.26;100.00;94014.78;5009351;28;20060;-75
2021/12/04 08:36:32;;;;;;;12.60;3.30;;;;;;;0.23;100.00;94020.47;5007943;28;20659;-75
2021/12/04 08:38:59;;;;;;;9.30;3.05;;;;;;;0.29;100.00;94014.34;4989906;28;20038;-76
2021/12/04 08:41:26;;;;;;;9.82;3.58;;;;;;;0.29;100.00;94014.34;5000130;28;20510;-80
2021/12/04 08:43:54;;;;;;;12.73;4.22;;;;;;;0.30;100.00;94005.53;5006039;28;20053;-76
2021/12/04 08:46:20;;;;;;;11.93;3.65;;;;;;;0.35;100.00;94005.59;5001507;28;20100;-75
2021/12/04 08:48:49;;;;;;;8.20;3.75;;;;;;;0.38;100.00;94007.69;4973002;28;20045;-76
2021/12/04 08:51:16;;;;;;;7.43;3.15;;;;;;;0.40;100.00;94010.81;5006991;28;20419;-77
2021/12/04 08:53:42;;;;;;;14.48;2.88;;;;;;;0.38;100.00;94007.69;5004774;28;20033;-77
2021/12/04 08:56:07;;;;;;;11.10;2.72;;;;;;;0.45;100.00;94003.13;4988585;28;20553;-78
2021/12/04 08:58:35;;;;;;;7.38;2.70;;;;;;;0.46;100.00;93988.38;5008287;28;20042;-76
2021/12/04 09:01:04;;;;;;;14.45;3.55;;;;;;;0.49;100.00;93999.03;5001954;28;20072;-74
2021/12/04 09:03:34;;;;;;;11.13;3.47;;;;;;;0.51;100.00;93996.19;5001054;28;20052;-76
2021/12/04 09:06:01;;;;;;;11.13;2.50;;;;;;;0.53;100.00;93994.13;4984053;28;20057;-77
2021/12/04 09:08:30;;;;;;;6.50;2.83;;;;;;;0.56;100.00;93992.88;4993246;28;20117;-78
2021/12/04 09:11:00;;;;;;;7.40;3.03;;;;;;;0.60;100.00;93993.94;5006309;28;20041;-77
2021/12/04 09:13:28;;;;;;;12.27;3.35;;;;;;;0.59;100.00;93992.38;4994230;28;20061;-77
2021/12/04 09:15:56;;;;;;;10.52;2.80;;;;;;;0.61;100.00;93985.94;4999243;28;20042;-79
2021/12/04 09:18:22;;;;;;;9.90;2.83;;;;;;;0.70;100.00;93978.50;4985799;28;20050;-79
2021/12/04 09:20:50;;;;;;;17.05;3.47;;;;;;;0.77;100.00;93984.28;5009619;28;20096;-78
2021/12/04 09:23:17;;;;;;;13.73;4.32;;;;;;;0.77;100.00;93984.28;4994027;28;20309;-79
2021/12/04 09:25:48;;;;;;;6.93;3.33;;;;;;;0.84;100.00;93979.69;4989151;28;20033;-77
2021/12/04 10:00:56;;;;;;;11.93;2.35;;;;;;;1.68;100.00;93942.94;5009852;28;20042;-77
2021/12/04 10:18:14;;;;;;;3.30;1.48;;;;;;;2.30;100.00;93925.00;4996405;28;20042;-79
2021/12/04 10:33:46;;;;;;;;;;;;;;;2.67;100.00;93898.06;5022211;28;20385;-79
2021/12/04 10:36:13;;;;;;;2.97;1.50;;;;;;;2.70;100.00;93897.56;4997204;28;19922;-79
2021/12/04 10:38:44;;;;;;;2.63;1.60;;;;;;;2.76;100.00;93891.34;5002659;28;20042;-79
2021/12/04 10:41:16;;;;;;;4.50;1.75;;;;;;;2.84;100.00;93888.19;4986193;28;20052;-79
2021/12/04 10:43:42;;;;;;;4.15;2.13;;;;;;;2.94;100.00;93883.03;5016590;28;20037;-79
2021/12/04 10:46:16;;;;;;;3.42;1.83;;;;;;;3.08;100.00;93882.47;5007125;28;20174;-79
2021/12/04 10:48:51;;;;;;;3.45;1.95;;;;;;;3.08;100.00;93872.84;4998824;28;20081;-79
2021/12/04 10:53:54;;;;;;;3.00;1.50;;;;;;;3.25;100.00;93862.19;5012896;28;19925;-77
2021/12/04 10:56:36;;;;;;;3.60;1.80;;;;;;;3.28;100.00;93861.66;5011800;28;20112;-80
2021/12/04 11:02:24;;;;;;;3.05;1.50;;;;;;;3.47;100.00;93843.66;4963121;28;20047;-78
2021/12/04 11:04:54;;;;;;;3.65;1.73;;;;;;;3.62;100.00;93840.22;4964766;28;20045;-78
2021/12/04 11:42:42;;;;;;;3.25;1.63;;;;;;;4.23;100.00;93806.34;5010524;28;20116;-78
2021/12/04 11:45:25;;;;;;;3.78;1.90;;;;;;;4.32;100.00;93804.72;4986692;28;20049;-78
2021/12/04 11:47:54;;;;;;;4.13;1.83;;;;;;;4.33;100.00;93799.22;4990729;28;20112;-75
2021/12/04 11:50:30;;;;;;;5.50;1.85;;;;;;;4.33;100.00;93795.84;5001040;28;20057;-76
2021/12/04 11:53:01;;;;;;;3.60;1.90;;;;;;;4.36;100.00;93794.53;5002981;28;20077;-76
2021/12/04 11:55:31;;;;;;;3.97;1.83;;;;;;;4.34;100.00;93792.22;5008118;28;20041;-76
2021/12/04 11:57:57;;;;;;;3.88;1.67;;;;;;;4.31;100.00;93798.72;5006515;28;20113;-75
2021/12/04 12:00:30;;;;;;;4.18;2.05;;;;;;;4.32;100.00;93795.09;5005889;28;20121;-75
2021/12/04 12:03:05;;;;;;;4.63;2.13;;;;;;;4.44;100.00;93791.34;4995139;28;20455;-75
2021/12/04 12:05:31;;;;;;;;;;;;;;;4.51;100.00;93786.59;5000285;28;20050;-75
2021/12/04 12:07:58;;;;;;;4.97;2.17;;;;;;;4.54;100.00;93780.06;4995255;28;19948;-75
2021/12/04 12:10:26;;;;;;;3.15;1.50;;;;;;;4.68;100.00;93781.78;4999120;28;20050;-75
2021/12/04 12:13:03;;;;;;;10.98;1.80;;;;;;;4.80;100.00;93778.03;4991753;28;20056;-75
2021/12/04 12:15:35;;;;;;;2.83;1.60;;;;;;;4.83;100.00;93777.47;5008862;28;20111;-74
2021/12/04 12:18:11;;;;;;;5.30;2.00;;;;;;;4.90;100.00;93777.13;4989123;28;20065;-73
2021/12/04 12:20:42;;;;;;;5.38;1.95;;;;;;;4.91;100.00;93774.25;5005530;28;20054;-74
2021/12/04 12:23:11;;;;;;;3.03;1.55;;;;;;;4.91;100.00;93771.66;5001421;28;20073;-78
2021/12/04 12:37:15;;;;;;;;;;;;;;;5.23;100.00;93744.22;5005503;28;20100;-76
2021/12/04 12:40:12;;;;;;;5.43;2.53;;;;;;;5.28;100.00;93743.38;4993096;28;19925;-75
2021/12/04 12:42:40;;;;;;;5.25;1.88;;;;;;;5.28;100.00;93736.31;4987773;28;20708;-75
2021/12/04 12:45:29;;;;;;;9.25;1.80;;;;;;;5.44;100.00;93731.69;5004331;28;20463;-77
2021/12/04 12:48:04;;;;;;;3.50;2.10;;;;;;;5.70;100.00;93732.16;4984633;28;20114;-77
2021/12/04 12:50:44;;;;;;;4.00;1.50;;;;;;;5.70;100.00;93732.16;5007599;28;20038;-76
2021/12/04 12:53:14;;;;;;;3.90;1.48;;;;;;;5.72;100.00;93730.03;5000312;28;20124;-77
2021/12/04 12:55:43;;;;;;;5.30;1.48;;;;;;;5.76;100.00;93721.63;5001634;28;20038;-76
2021/12/04 12:58:41;;;;;;;1.95;1.40;;;;;;;5.80;100.00;93717.41;5000970;28;20034;-76
2021/12/04 13:12:56;;;;;;;2.72;1.42;;;;;;;5.75;100.00;93717.47;5002802;28;20088;-76
2021/12/04 13:15:35;;;;;;;3.17;1.50;;;;;;;5.72;100.00;93703.94;4976778;28;20121;-76
2021/12/04 13:18:21;;;;;;;2.65;1.48;;;;;;;5.69;100.00;93709.72;5002753;28;20042;-75
2021/12/04 13:20:49;;;;;;;2.38;1.40;;;;;;;5.64;100.00;93717.59;5000712;28;20038;-75
2021/12/04 13:23:19;;;;;;;2.65;1.70;;;;;;;5.52;100.00;93709.44;4997856;28;20536;-77
2021/12/04 13:25:57;;;;;;;3.63;1.48;;;;;;;5.52;100.00;93715.41;4982178;28;20054;-76
2021/12/04 13:28:30;;;;;;;5.38;1.38;;;;;;;5.46;100.00;93705.31;4985196;28;20121;-77
2021/12/04 13:31:00;;;;;;;3.03;1.60;;;;;;;5.43;100.00;93711.91;4990272;28;20042;-77
2021/12/04 13:33:30;;;;;;;2.92;1.45;;;;;;;5.44;100.00;93707.44;4995471;28;20052;-77
2021/12/04 13:35:55;;;;;;;4.35;1.70;;;;;;;5.50;100.00;93701.09;4995739;28;20042;-76
2021/12/04 13:38:24;;;;;;;2.38;1.65;;;;;;;5.55;100.00;93708.88;4990585;28;20161;-78
2021/12/04 13:40:52;;;;;;;2.33;1.70;;;;;;;5.69;100.00;93704.50;4992015;28;20101;-77
2021/12/04 13:43:19;;;;;;;4.20;1.73;;;;;;;5.71;100.00;93702.38;5001820;28;20038;-77
2021/12/04 13:45:45;;;;;;;2.33;1.48;;;;;;;5.71;100.00;93701.59;4988298;28;20050;-77
2021/12/04 13:48:11;;;;;;;2.97;1.65;;;;;;;5.71;100.00;93707.59;4986054;28;20049;-77
2021/12/04 13:53:26;;;;;;;8.70;3.95;;;;;;;5.79;100.00;93692.34;4996702;28;20046;-78
2021/12/04 13:56:23;;;;;;;2.30;1.40;;;;;;;5.77;100.00;93704.91;4983415;28;20411;-76
2021/12/04 13:58:56;;;;;;;6.78;3.00;;;;;;;5.75;100.00;93696.56;4997090;28;20427;-77
2021/12/04 14:01:23;;;;;;;6.00;2.42;;;;;;;5.73;100.00;93695.03;5004058;28;20076;-79
2021/12/04 14:03:57;;;;;;;6.93;2.10;;;;;;;5.72;100.00;93698.72;4977595;28;20693;-77
2021/12/04 14:06:23;;;;;;;5.25;2.38;;;;;;;5.70;100.00;93695.63;4990143;28;20520;-77
2021/12/04 14:09:06;;;;;;;2.80;1.42;;;;;;;5.66;100.00;93694.63;4999889;28;20049;-79
2021/12/04 14:11:35;;;;;;;3.90;1.58;;;;;;;5.66;100.00;93699.06;4997993;28;20049;-78
2021/12/04 14:14:22;;;;;;;1.67;1.20;;;;;;;5.68;100.00;93697.72;5003365;28;20117;-78
2021/12/04 14:16:53;;;;;;;1.63;1.20;;;;;;;5.69;100.00;93698.50;4994402;28;20053;-77
2021/12/04 14:19:27;;;;;;;1.33;1.00;;;;;;;5.72;100.00;93700.53;4997098;28;20042;-79
2021/12/04 14:22:01;;;;;;;1.65;1.17;;;;;;;5.71;100.00;93702.38;5006314;28;20045;-79
2021/12/04 14:24:52;;;;;;;3.72;2.10;;;;;;;5.79;100.00;93708.00;5008054;28;20038;-80
2021/12/04 14:27:25;;;;;;;1.27;1.10;;;;;;;5.81;100.00;93711.13;5001679;28;20053;-80
2021/12/04 14:29:55;;;;;;;1.80;1.15;;;;;;;5.90;100.00;93714.63;4996341;28;20043;-79
2021/12/04 14:32:26;;;;;;;2.55;1.67;;;;;;;5.87;100.00;93712.59;5008612;28;20046;-79
2021/12/04 14:34:58;;;;;;;1.33;0.88;;;;;;;5.89;100.00;93713.88;4995446;28;20582;-80
2021/12/04 14:37:24;;;;;;;1.85;1.30;;;;;;;5.94;100.00;93720.84;4994369;28;20049;-79
2021/12/04 14:39:50;;;;;;;1.83;1.23;;;;;;;6.07;100.00;93709.69;4994501;28;20589;-79
2021/12/04 14:42:19;;;;;;;1.42;1.20;;;;;;;6.13;100.00;93722.69;4990325;28;20042;-77
2021/12/04 14:45:00;;;;;;;1.77;1.15;;;;;;;6.03;100.00;93719.19;5011904;28;20038;-77
2021/12/04 14:47:37;;;;;;;1.42;1.15;;;;;;;6.06;100.00;93715.22;5003081;28;20069;-78
2021/12/04 14:50:06;;;;;;;0.98;0.82;;;;;;;6.04;100.00;93715.50;4993620;28;20653;-79
2021/12/04 14:52:34;;;;;;;2.25;1.50;;;;;;;5.97;100.00;93714.28;4998734;28;20451;-77
2021/12/04 14:55:12;;;;;;;1.60;1.40;;;;;;;5.97;100.00;93704.63;4997969;28;20077;-76
2021/12/04 14:57:40;;;;;;;1.63;1.10;;;;;;;5.90;100.00;93709.41;4992004;28;20603;-77